Aeroporto :
LOGIN :

Iscrizione | Disclaimer

   EN    FR    IT 

 










Sommario :    VFR   VFR Marginale   IFR   IFR Intensivo   IFR Molto Intensivo
Visibilità : 
Base nubi : 
>= 8 km
>= 3000ft
5 / 8 km
1000 / 3000 ft
1500m / 5 km
500 / 1000 ft
800 / 1500m
200 / 500 ft
< 800m
< 200 ft
Simboli :   Temporali  Nebbia  Neve Forte  Precipitazioni Forti  Vento > 20 kt
SIGMETs :   Varie  Temporali  Ghiacco  Turbolenza  Onda orograficha  Ceneri Vulcaniche






- Altitudine del aeroporto : -13 ft
- Codice IATA : LEY


EHLE - Lelystad

ULTIMO METAR :
  • 120025Z AUTO 20014KT 9999 // FEW015CB BKN027 OVC031 05/04 Q0999 RE//

METARs OBSOLETI :
  • 112355Z AUTO 20012KT 160V220 9999 // FEW015CB 05/04 Q0999 RE//
  • 112325Z AUTO 20013KT 170V230 9999 // FEW015CB SCT029 BKN035 06/05 Q0999 RE//
  • 112255Z AUTO 20014KT 9999 // FEW015CB SCT041 BKN048 06/04 Q0999 RE//
  • 112225Z AUTO 19014KT 160V220 9999 // FEW015CB SCT026 BKN029 OVC042 06/05 Q0998 RE//
  • 112155Z AUTO 20014KT 9999 // FEW015CB BKN032 BKN044 06/05 Q0998 RE//

TAF TAF EHLE
Valido dal 12 a 00 ore il 13 a 06 ore UTC


112315Z 1200/1306 20012KT 9999 SCT025
TEMPO 1200/1216 23018G28KT 6000 SHRA SCT022CB BKN025
PROB30
TEMPO 1200/1215 4000 TSRAGS
PROB40 1201/1211 BKN008
TEMPO 1222/1306 21015G25KT 6000 RA SHRA BKN010 FEW015CB



MetMap, La meteo Aeronautica in un colpo d'occhio ! - Copyright ORBIFLY Dicembre 2007 - Disclaimer

ORBIFLY MET'MAP TEAM :

Programmazione e sviluppo : Alexandra Zaïnal
Concezione e sviluppo : Baudouin d'Aumeries
Co-Programmazione e sviluppo : Marc-Olivier Méhu
Supporto tecnico e logistico : Manuel Goepfert
Aiuto per la traduzione : Arnaldo La Scala

Contatto : metmap@orbifly.com




FONTI E CREDITI :

   NOAA